createdAt,value
2023-03-31T00:01:09.259Z,98066.22
2023-03-31T00:03:38.928Z,98062.66
2023-03-31T00:06:06.875Z,98061.97
2023-03-31T00:08:37.800Z,98074.22
2023-03-31T00:11:08.018Z,98054.91
2023-03-31T00:13:37.005Z,98045.78
2023-03-31T00:16:09.315Z,98046.78
2023-03-31T00:18:37.912Z,98041.66
2023-03-31T00:21:24.636Z,98045.94
2023-03-31T00:24:00.728Z,98044.16
2023-03-31T00:26:29.525Z,98048.72
2023-03-31T00:28:58.251Z,98038.88
2023-03-31T00:31:30.491Z,98042.50
2023-03-31T00:33:57.770Z,98037.50
2023-03-31T00:36:29.143Z,98034.00
2023-03-31T00:38:59.963Z,98031.50
2023-03-31T00:41:29.818Z,98028.09
2023-03-31T00:44:13.813Z,98022.38
2023-03-31T00:46:52.474Z,98018.00
2023-03-31T00:49:45.657Z,98018.84
2023-03-31T00:52:21.670Z,98019.41
2023-03-31T00:54:57.129Z,98010.69
2023-03-31T00:57:28.613Z,98004.66
2023-03-31T01:00:17.392Z,98003.06
2023-03-31T01:03:07.573Z,98001.50
2023-03-31T01:05:41.112Z,97999.25
2023-03-31T01:08:10.226Z,97987.00
2023-03-31T01:10:43.594Z,97979.13
2023-03-31T01:13:14.893Z,97967.75
2023-03-31T01:15:44.762Z,97973.78
2023-03-31T01:18:16.412Z,97968.50
2023-03-31T01:21:18.770Z,97971.13
2023-03-31T01:24:10.452Z,97958.50
2023-03-31T01:27:07.965Z,97964.47
2023-03-31T01:29:47.810Z,97948.44
2023-03-31T01:32:37.190Z,97944.78
2023-03-31T01:35:35.101Z,97941.97
2023-03-31T01:38:46.870Z,97926.94
2023-03-31T01:41:32.096Z,97925.88
2023-03-31T01:44:29.651Z,97918.88
2023-03-31T01:47:22.952Z,97918.19
2023-03-31T01:50:05.108Z,97905.88
2023-03-31T01:52:47.665Z,97915.41
2023-03-31T01:55:33.853Z,97904.88
2023-03-31T01:58:13.821Z,97901.41
2023-03-31T02:00:52.138Z,97889.84
2023-03-31T02:03:29.560Z,97887.34
2023-03-31T02:06:13.033Z,97892.72
2023-03-31T02:08:52.582Z,97884.81
2023-03-31T02:11:22.006Z,97878.69
2023-03-31T02:13:55.657Z,97882.09
2023-03-31T02:16:32.364Z,97875.81
2023-03-31T02:19:05.752Z,97875.06
2023-03-31T02:21:37.020Z,97866.44
2023-03-31T02:24:11.929Z,97859.50
2023-03-31T02:26:52.289Z,97864.69
2023-03-31T02:29:19.911Z,97863.03
2023-03-31T02:32:08.431Z,97862.13
2023-03-31T02:34:35.936Z,97868.31
2023-03-31T02:37:03.046Z,97866.63
2023-03-31T02:39:36.409Z,97866.63
2023-03-31T02:42:07.590Z,97868.25
2023-03-31T02:44:37.971Z,97862.88
2023-03-31T02:47:09.993Z,97847.25
2023-03-31T02:49:42.405Z,97847.16
2023-03-31T02:52:32.327Z,97854.47
2023-03-31T02:55:20.748Z,97847.69
2023-03-31T02:58:18.256Z,97850.63
2023-03-31T03:01:16.353Z,97852.94
2023-03-31T03:04:09.614Z,97840.38
2023-03-31T03:06:53.801Z,97837.75
2023-03-31T03:09:44.717Z,97838.50
2023-03-31T03:12:25.529Z,97834.94
2023-03-31T03:15:02.820Z,97841.66
2023-03-31T03:17:43.678Z,97852.94
2023-03-31T03:20:13.917Z,97840.13
2023-03-31T03:22:41.281Z,97832.84
2023-03-31T03:25:14.739Z,97836.06
2023-03-31T03:27:41.934Z,97831.41
2023-03-31T03:30:12.618Z,97834.88
2023-03-31T03:32:41.452Z,97829.28
2023-03-31T03:35:09.034Z,97828.44
2023-03-31T03:37:36.840Z,97819.41
2023-03-31T03:40:07.848Z,97827.41
2023-03-31T03:42:36.088Z,97816.72
2023-03-31T03:45:03.265Z,97813.16
2023-03-31T03:47:30.714Z,97803.44
2023-03-31T03:49:59.068Z,97799.78
2023-03-31T03:52:26.576Z,97792.72
2023-03-31T03:54:54.910Z,97781.59
2023-03-31T03:57:22.550Z,97772.75
2023-03-31T03:59:49.593Z,97771.16
2023-03-31T04:02:17.260Z,97772.91
2023-03-31T04:04:44.349Z,97770.97
2023-03-31T04:07:11.881Z,97757.78
2023-03-31T04:09:38.779Z,97756.66
2023-03-31T04:12:06.144Z,97751.56
2023-03-31T04:14:33.060Z,97751.75
2023-03-31T04:17:00.156Z,97753.53
2023-03-31T04:19:27.622Z,97750.97
2023-03-31T04:21:58.956Z,97741.56
2023-03-31T04:24:30.853Z,97740.69
2023-03-31T04:26:59.597Z,97731.28
2023-03-31T04:29:26.911Z,97729.75
2023-03-31T04:31:59.272Z,97723.44
2023-03-31T04:34:35.707Z,97726.94
2023-03-31T04:37:04.021Z,97714.78
2023-03-31T04:39:32.266Z,97720.13
2023-03-31T04:42:01.285Z,97715.69
2023-03-31T04:44:29.270Z,97712.22
2023-03-31T04:46:56.888Z,97720.28
2023-03-31T04:49:24.070Z,97720.28
2023-03-31T04:51:51.263Z,97710.59
2023-03-31T04:54:19.657Z,97712.13
2023-03-31T04:56:46.974Z,97709.41
2023-03-31T04:59:14.002Z,97706.03
2023-03-31T05:01:45.690Z,97704.16
2023-03-31T05:04:12.932Z,97703.06
2023-03-31T05:06:40.075Z,97701.38
2023-03-31T05:09:07.280Z,97699.56
2023-03-31T05:11:34.462Z,97698.88
2023-03-31T05:14:01.488Z,97697.06
2023-03-31T05:16:28.859Z,97691.66
2023-03-31T05:18:55.976Z,97689.69
2023-03-31T05:21:23.547Z,97676.44
2023-03-31T05:23:51.093Z,97678.81
2023-03-31T05:26:18.567Z,97672.59
2023-03-31T05:28:45.713Z,97657.53
2023-03-31T05:31:13.302Z,97659.91
2023-03-31T05:33:42.182Z,97654.81
2023-03-31T05:36:16.311Z,97644.94
2023-03-31T05:38:43.916Z,97639.47
2023-03-31T05:41:11.982Z,97632.44
2023-03-31T05:43:39.747Z,97626.94
2023-03-31T05:46:07.579Z,97625.19
2023-03-31T05:48:37.401Z,97611.69
2023-03-31T05:51:05.569Z,97613.41
2023-03-31T05:53:32.661Z,97617.66
2023-03-31T05:56:03.374Z,97617.66
2023-03-31T05:58:31.298Z,97609.06
2023-03-31T06:01:10.130Z,97603.91
2023-03-31T06:03:42.558Z,97602.03
2023-03-31T06:06:13.293Z,97587.78
2023-03-31T06:08:41.233Z,97596.09
2023-03-31T06:11:12.960Z,97589.88
2023-03-31T06:13:41.503Z,97588.84
2023-03-31T06:16:12.902Z,97585.19
2023-03-31T06:18:40.552Z,97585.09
2023-03-31T06:21:10.596Z,97589.22
2023-03-31T06:23:37.482Z,97588.94
2023-03-31T06:26:08.844Z,97580.75
2023-03-31T06:28:36.693Z,97581.78
2023-03-31T06:31:14.784Z,97565.06
2023-03-31T06:33:43.270Z,97566.19
2023-03-31T06:36:14.261Z,97574.66
2023-03-31T06:38:41.640Z,97571.72
2023-03-31T06:41:13.912Z,97570.84
2023-03-31T06:43:41.148Z,97572.06
2023-03-31T06:46:09.320Z,97568.00
2023-03-31T06:48:37.129Z,97572.94
2023-03-31T06:51:07.404Z,97571.19
2023-03-31T06:53:35.469Z,97575.50
2023-03-31T06:56:03.954Z,97575.28
2023-03-31T06:58:31.718Z,97576.34
2023-03-31T07:00:59.305Z,97565.69
2023-03-31T07:03:26.429Z,97563.16
2023-03-31T07:05:55.698Z,97557.56
2023-03-31T07:08:23.301Z,97554.53
2023-03-31T07:10:57.845Z,97553.88
2023-03-31T07:13:26.215Z,97559.81
2023-03-31T07:15:54.593Z,97553.69
2023-03-31T07:18:26.315Z,97553.22
2023-03-31T07:20:53.777Z,97548.50
2023-03-31T07:23:21.234Z,97546.47
2023-03-31T07:25:48.712Z,97544.13
2023-03-31T07:28:16.799Z,97558.09
2023-03-31T07:30:44.070Z,97539.50
2023-03-31T07:33:11.262Z,97531.78
2023-03-31T07:35:41.220Z,97528.53
2023-03-31T07:38:10.753Z,97526.09
2023-03-31T07:40:39.758Z,97529.69
2023-03-31T07:43:07.749Z,97521.25
2023-03-31T07:45:35.591Z,97524.31
2023-03-31T07:48:02.682Z,97516.28
2023-03-31T07:50:30.438Z,97519.97
2023-03-31T07:52:57.366Z,97516.91
2023-03-31T07:55:26.328Z,97508.81
2023-03-31T07:57:53.480Z,97493.25
2023-03-31T08:00:21.373Z,97489.66
2023-03-31T08:02:48.716Z,97478.25
2023-03-31T08:05:19.526Z,97488.16
2023-03-31T08:07:49.611Z,97493.13
2023-03-31T08:10:23.482Z,97493.41
2023-03-31T08:12:50.590Z,97495.50
2023-03-31T08:15:18.658Z,97492.13
2023-03-31T08:17:46.108Z,97492.44
2023-03-31T08:20:13.613Z,97491.81
2023-03-31T08:22:41.491Z,97500.66
2023-03-31T08:25:10.050Z,97494.53
2023-03-31T08:27:40.655Z,97500.66
2023-03-31T08:30:11.701Z,97491.78
2023-03-31T08:32:39.076Z,97480.25
2023-03-31T08:35:07.792Z,97482.88
2023-03-31T08:37:34.829Z,97479.50
2023-03-31T08:40:05.230Z,97473.81
2023-03-31T08:42:51.662Z,97473.28
2023-03-31T08:45:30.751Z,97479.97
2023-03-31T08:48:07.452Z,97473.97
2023-03-31T08:50:44.194Z,97477.75
2023-03-31T08:53:28.938Z,97474.28
2023-03-31T08:55:59.173Z,97473.75
2023-03-31T08:58:49.144Z,97468.34
2023-03-31T09:01:58.550Z,97471.09
2023-03-31T09:05:07.169Z,97471.56
2023-03-31T09:08:10.294Z,97462.75
2023-03-31T09:10:55.385Z,97449.03
2023-03-31T09:14:16.580Z,97440.16
2023-03-31T09:17:21.629Z,97440.78
2023-03-31T09:19:56.250Z,97434.03
2023-03-31T09:22:33.255Z,97430.31
2023-03-31T09:25:10.499Z,97417.44
2023-03-31T09:30:29.301Z,97410.03
2023-03-31T09:33:32.127Z,97413.63
2023-03-31T09:36:13.720Z,97408.31
2023-03-31T09:38:43.514Z,97410.25
2023-03-31T09:41:14.720Z,97402.72
2023-03-31T09:43:43.233Z,97394.78
2023-03-31T09:46:35.015Z,97394.91
2023-03-31T09:49:19.581Z,97385.47
2023-03-31T09:52:00.686Z,97389.69
2023-03-31T09:54:37.191Z,97394.44
2023-03-31T09:57:34.619Z,97387.28
2023-03-31T10:00:20.083Z,97381.22
2023-03-31T10:02:56.222Z,97377.22
2023-03-31T10:05:36.618Z,97369.06
2023-03-31T10:08:39.551Z,97370.53
2023-03-31T10:11:07.035Z,97360.91
2023-03-31T10:13:49.932Z,97364.50
2023-03-31T10:16:45.954Z,97350.78
2023-03-31T10:19:37.978Z,97356.50
2023-03-31T10:22:27.469Z,97349.34
2023-03-31T10:25:07.389Z,97347.50
2023-03-31T10:27:35.953Z,97341.25
2023-03-31T10:30:11.081Z,97329.63
2023-03-31T10:32:43.349Z,97327.31
2023-03-31T10:35:27.625Z,97323.84
2023-03-31T10:38:06.030Z,97316.81
2023-03-31T10:40:36.370Z,97316.69
2023-03-31T10:43:20.802Z,97308.28
2023-03-31T10:45:51.730Z,97314.09
2023-03-31T10:48:31.252Z,97311.44
2023-03-31T10:51:20.110Z,97304.25
2023-03-31T10:54:00.590Z,97293.53
2023-03-31T10:56:42.399Z,97293.53
2023-03-31T10:59:46.919Z,97285.50
2023-03-31T11:02:48.461Z,97283.09
2023-03-31T11:05:37.448Z,97286.09
2023-03-31T11:08:18.652Z,97289.06
2023-03-31T11:11:23.804Z,97285.31
2023-03-31T11:14:16.497Z,97278.63
2023-03-31T11:17:03.355Z,97283.03
2023-03-31T11:19:55.487Z,97292.13
2023-03-31T11:22:37.474Z,97290.16
2023-03-31T11:25:10.331Z,97292.41
2023-03-31T11:28:20.382Z,97287.56
2023-03-31T11:31:15.665Z,97271.59
2023-03-31T11:34:04.086Z,97269.59
2023-03-31T11:37:37.457Z,97270.75
2023-03-31T11:40:31.027Z,97254.53
2023-03-31T11:43:15.802Z,97236.47
2023-03-31T11:45:53.036Z,97203.44
2023-03-31T11:48:48.312Z,97144.94
2023-03-31T11:51:28.076Z,97144.25
2023-03-31T11:54:00.408Z,97148.25
2023-03-31T11:56:39.771Z,97174.44
2023-03-31T11:59:14.838Z,97189.63
2023-03-31T12:01:48.960Z,97205.25
2023-03-31T12:04:39.662Z,97210.56
2023-03-31T12:07:29.620Z,97203.34
2023-03-31T12:10:18.107Z,97192.38
2023-03-31T12:13:14.044Z,97188.59
2023-03-31T12:15:51.731Z,97185.19
2023-03-31T12:18:26.146Z,97175.13
2023-03-31T12:21:03.462Z,97173.16
2023-03-31T12:23:45.721Z,97170.88
2023-03-31T12:26:48.522Z,97160.09
2023-03-31T12:29:31.567Z,97163.91
2023-03-31T12:32:10.154Z,97161.19
2023-03-31T12:34:47.151Z,97155.00
2023-03-31T12:37:55.721Z,97148.88
2023-03-31T12:40:59.675Z,97147.06
2023-03-31T12:44:07.044Z,97145.19
2023-03-31T12:46:58.068Z,97135.94
2023-03-31T12:49:54.108Z,97123.41
2023-03-31T12:52:23.861Z,97115.34
2023-03-31T12:55:34.600Z,97115.94
2023-03-31T12:58:32.512Z,97118.88
2023-03-31T13:01:57.378Z,97113.22
2023-03-31T13:04:27.563Z,97094.69
2023-03-31T13:06:59.861Z,97095.72
2023-03-31T13:09:53.062Z,97093.75
2023-03-31T13:13:12.037Z,97093.28
2023-03-31T13:15:56.004Z,97077.75
2023-03-31T13:18:24.813Z,97064.72
2023-03-31T13:24:43.981Z,97033.59
2023-03-31T13:27:50.123Z,97024.22
2023-03-31T13:30:36.705Z,97010.91
2023-03-31T13:33:10.234Z,97010.72
2023-03-31T13:35:47.829Z,97013.22
2023-03-31T13:39:42.215Z,97010.56
2023-03-31T13:43:31.029Z,97006.97
2023-03-31T13:46:56.937Z,97003.19
2023-03-31T13:50:19.533Z,97002.25
2023-03-31T13:53:26.932Z,96997.75
2023-03-31T13:56:34.250Z,96997.97
2023-03-31T13:59:49.247Z,96999.06
2023-03-31T14:02:47.673Z,97050.06
2023-03-31T14:05:25.477Z,97041.19
2023-03-31T14:08:08.392Z,97007.38
2023-03-31T14:10:39.354Z,97035.69
2023-03-31T14:13:10.334Z,97044.84
2023-03-31T14:15:49.198Z,97016.13
2023-03-31T14:18:26.568Z,97030.03
2023-03-31T14:21:08.355Z,97036.50
2023-03-31T14:24:19.120Z,97039.97
2023-03-31T14:27:25.570Z,97060.59
2023-03-31T14:30:29.514Z,97059.13
2023-03-31T14:33:27.500Z,97062.63
2023-03-31T14:36:08.199Z,97051.22
2023-03-31T14:38:35.753Z,97047.34
2023-03-31T14:41:03.562Z,97051.31
2023-03-31T14:43:41.107Z,97057.81
2023-03-31T14:46:10.110Z,97041.19
2023-03-31T14:48:49.534Z,97035.91
2023-03-31T14:51:31.102Z,97027.66
2023-03-31T14:54:02.362Z,97017.09
2023-03-31T14:56:39.162Z,97037.47
2023-03-31T14:59:08.729Z,97029.78
2023-03-31T15:01:38.711Z,97021.22
2023-03-31T15:04:15.135Z,97028.59
2023-03-31T15:06:46.504Z,97013.19
2023-03-31T15:09:23.767Z,97011.41
2023-03-31T15:11:59.584Z,97014.56
2023-03-31T15:14:45.998Z,97006.97
2023-03-31T15:17:24.437Z,96995.09
2023-03-31T15:19:58.975Z,96979.25
2023-03-31T15:22:29.793Z,96977.38
2023-03-31T15:24:57.976Z,96965.94
2023-03-31T15:27:37.690Z,96962.03
2023-03-31T15:30:23.654Z,96968.59
2023-03-31T15:32:51.354Z,96955.66
2023-03-31T15:35:29.102Z,96959.50
2023-03-31T15:37:59.805Z,96965.31
2023-03-31T15:40:32.499Z,96953.47
2023-03-31T15:43:43.334Z,96945.03
2023-03-31T15:46:19.787Z,96954.41
2023-03-31T15:48:56.088Z,96956.59
2023-03-31T15:51:36.346Z,96963.03
2023-03-31T15:54:15.076Z,96958.84
2023-03-31T15:56:46.012Z,96967.19
2023-03-31T15:59:56.887Z,96965.16
2023-03-31T16:02:44.118Z,96975.59
2023-03-31T16:05:53.524Z,96975.84
2023-03-31T16:08:27.652Z,96983.66
2023-03-31T16:11:07.317Z,96981.72
2023-03-31T16:13:40.822Z,96973.81
2023-03-31T16:16:16.696Z,96978.97
2023-03-31T16:18:51.184Z,96980.53
2023-03-31T16:21:37.951Z,96980.41
2023-03-31T16:24:06.366Z,96983.75
2023-03-31T16:26:34.354Z,96986.28
2023-03-31T16:29:01.920Z,96978.75
2023-03-31T16:31:40.906Z,96982.84
2023-03-31T16:34:11.448Z,96985.03
2023-03-31T16:36:39.231Z,96995.50
2023-03-31T16:39:07.085Z,97003.25
2023-03-31T16:41:37.634Z,96995.66
2023-03-31T16:44:06.417Z,96989.94
2023-03-31T16:46:33.703Z,96987.91
2023-03-31T16:49:01.004Z,96977.22
2023-03-31T16:51:28.047Z,96969.78
2023-03-31T16:53:56.870Z,96966.94
2023-03-31T16:56:26.407Z,96972.22
2023-03-31T16:58:53.796Z,96974.34
2023-03-31T17:01:21.104Z,96978.44
2023-03-31T17:03:48.836Z,96979.16
2023-03-31T17:06:16.087Z,96984.94
2023-03-31T17:08:43.376Z,96975.56
2023-03-31T17:11:16.462Z,96982.88
2023-03-31T17:13:44.965Z,96980.09
2023-03-31T17:16:22.025Z,96980.88
2023-03-31T17:18:54.569Z,96978.97
2023-03-31T17:21:22.019Z,96988.66
2023-03-31T17:23:49.869Z,96991.41
2023-03-31T17:26:18.555Z,96993.22
2023-03-31T17:28:46.148Z,96997.34
2023-03-31T17:31:19.278Z,97010.94
2023-03-31T17:33:47.616Z,97003.53
2023-03-31T17:36:15.863Z,97000.38
2023-03-31T17:38:43.461Z,97001.47
2023-03-31T17:41:13.809Z,97000.63
2023-03-31T17:43:46.260Z,96998.22
2023-03-31T17:46:14.036Z,96999.75
2023-03-31T17:48:43.246Z,96998.56
2023-03-31T17:51:17.694Z,96999.78
2023-03-31T17:53:47.862Z,96999.88
2023-03-31T17:56:16.850Z,96991.25
2023-03-31T17:58:45.313Z,97004.16
2023-03-31T18:01:13.616Z,97002.72
2023-03-31T18:03:42.186Z,97007.19
2023-03-31T18:06:14.660Z,97008.28
2023-03-31T18:08:43.211Z,97008.63
2023-03-31T18:11:11.493Z,97012.59
2023-03-31T18:13:40.717Z,97020.41
2023-03-31T18:16:10.989Z,97010.81
2023-03-31T18:18:39.433Z,97018.84
2023-03-31T18:21:10.564Z,97021.69
2023-03-31T18:23:38.264Z,97025.19
2023-03-31T18:26:11.423Z,97034.69
2023-03-31T18:28:43.159Z,97028.91
2023-03-31T18:31:11.664Z,97029.84
2023-03-31T18:33:40.886Z,97031.34
2023-03-31T18:36:16.873Z,97033.66
2023-03-31T18:38:47.093Z,97031.03
2023-03-31T18:41:15.261Z,97024.75
2023-03-31T18:43:42.426Z,97022.81
2023-03-31T18:46:10.839Z,97027.13
2023-03-31T18:48:38.587Z,97031.25
2023-03-31T18:51:05.676Z,97024.06
2023-03-31T18:53:33.250Z,97032.09
2023-03-31T18:56:01.325Z,97031.47
2023-03-31T18:58:30.792Z,97028.94
2023-03-31T19:01:01.262Z,97029.78
2023-03-31T19:03:29.175Z,97032.91
2023-03-31T19:06:12.337Z,97030.28
2023-03-31T19:08:40.553Z,97029.56
2023-03-31T19:11:14.249Z,97021.63
2023-03-31T19:13:43.175Z,97028.09
2023-03-31T19:16:13.298Z,97027.25
2023-03-31T19:18:41.103Z,97039.94
2023-03-31T19:21:08.157Z,97042.47
2023-03-31T19:23:35.578Z,97045.09
2023-03-31T19:26:03.179Z,97034.53
2023-03-31T19:28:31.743Z,97035.84
2023-03-31T19:30:59.431Z,97034.25
2023-03-31T19:33:27.675Z,97033.19
2023-03-31T19:35:55.071Z,97031.88
2023-03-31T19:38:22.490Z,97036.38
2023-03-31T19:40:50.082Z,97039.59
2023-03-31T19:43:24.197Z,97032.28
2023-03-31T19:45:53.631Z,97038.09
2023-03-31T19:48:21.443Z,97040.88
2023-03-31T19:50:59.671Z,97032.72
2023-03-31T19:53:27.519Z,97036.94
2023-03-31T19:56:04.846Z,97036.94
2023-03-31T19:58:57.776Z,97037.28
2023-03-31T20:01:28.802Z,97042.22
2023-03-31T20:03:57.179Z,97046.53
2023-03-31T20:06:28.260Z,97045.28
2023-03-31T20:08:59.622Z,97038.91
2023-03-31T20:11:29.746Z,97037.97
2023-03-31T20:13:57.657Z,97041.78
2023-03-31T20:16:29.256Z,97042.63
2023-03-31T20:19:05.484Z,97040.94
2023-03-31T20:21:36.776Z,97042.22
2023-03-31T20:24:05.108Z,97040.88
2023-03-31T20:26:34.768Z,97039.81
2023-03-31T20:29:04.101Z,97042.66
2023-03-31T20:31:37.631Z,97036.44
2023-03-31T20:34:12.332Z,97031.06
2023-03-31T20:36:43.210Z,97029.69
2023-03-31T20:39:14.229Z,97035.72
2023-03-31T20:41:42.028Z,97038.97
2023-03-31T20:44:15.130Z,97027.91
2023-03-31T20:46:44.309Z,97039.19
2023-03-31T20:49:12.076Z,97039.19
2023-03-31T20:51:39.142Z,97045.41
2023-03-31T20:54:08.111Z,97038.25
2023-03-31T20:56:39.437Z,97033.41
2023-03-31T20:59:15.961Z,97034.00
2023-03-31T21:01:45.277Z,97033.06
2023-03-31T21:04:13.343Z,97025.47
2023-03-31T21:06:46.767Z,97028.34
2023-03-31T21:09:15.951Z,97021.16
2023-03-31T21:11:43.411Z,97020.09
2023-03-31T21:14:14.995Z,97017.59
2023-03-31T21:16:42.067Z,97019.19
2023-03-31T21:19:10.190Z,97025.19
2023-03-31T21:21:40.083Z,97021.72
2023-03-31T21:24:09.212Z,97016.31
2023-03-31T21:26:36.166Z,97014.00
2023-03-31T21:29:03.766Z,97028.47
2023-03-31T21:31:31.108Z,97024.56
2023-03-31T21:33:57.998Z,97019.28
2023-03-31T21:36:27.099Z,97017.38
2023-03-31T21:38:55.959Z,97016.66
2023-03-31T21:41:30.557Z,97016.84
2023-03-31T21:44:01.692Z,97016.97
2023-03-31T21:46:33.356Z,97021.31
2023-03-31T21:49:01.847Z,97013.59
2023-03-31T21:51:29.583Z,97023.31
2023-03-31T21:53:56.985Z,97029.41
2023-03-31T21:56:28.233Z,97030.16
2023-03-31T21:58:55.840Z,97037.22
2023-03-31T22:01:23.566Z,97036.16
2023-03-31T22:03:50.853Z,97025.59
2023-03-31T22:06:18.341Z,97023.94
2023-03-31T22:08:45.952Z,97029.22
2023-03-31T22:11:14.563Z,97022.56
2023-03-31T22:13:41.766Z,97027.81
2023-03-31T22:16:19.252Z,97026.28
2023-03-31T22:18:49.270Z,97018.91
2023-03-31T22:21:24.285Z,97020.47
2023-03-31T22:23:58.204Z,97024.41
2023-03-31T22:26:28.642Z,97024.28
2023-03-31T22:28:56.209Z,97038.50
2023-03-31T22:31:23.882Z,97028.59
2023-03-31T22:33:53.144Z,97031.88
2023-03-31T22:36:20.800Z,97033.56
2023-03-31T22:38:48.008Z,97035.03
2023-03-31T22:41:15.778Z,97031.44
2023-03-31T22:43:45.694Z,97037.03
2023-03-31T22:46:13.599Z,97026.06
2023-03-31T22:48:40.639Z,97014.31
2023-03-31T22:51:08.887Z,97017.28
2023-03-31T22:53:35.989Z,97017.28
2023-03-31T22:56:11.238Z,97020.94
2023-03-31T22:58:38.522Z,97020.22
2023-03-31T23:01:06.987Z,97018.22
2023-03-31T23:03:34.211Z,97025.19
2023-03-31T23:06:05.759Z,97031.84
2023-03-31T23:08:35.861Z,97022.44
2023-03-31T23:11:06.776Z,97024.16
2023-03-31T23:13:35.493Z,97021.41
2023-03-31T23:16:17.134Z,97022.25
2023-03-31T23:18:46.993Z,97028.03
2023-03-31T23:21:22.594Z,97019.38
2023-03-31T23:23:56.539Z,97021.59
2023-03-31T23:26:26.368Z,97021.50
2023-03-31T23:28:54.731Z,97015.56
2023-03-31T23:31:29.280Z,97010.94
2023-03-31T23:33:59.071Z,97009.97
2023-03-31T23:36:27.994Z,97008.13
2023-03-31T23:38:56.685Z,97009.97
2023-03-31T23:41:26.629Z,97017.78
2023-03-31T23:43:54.683Z,97008.81
2023-03-31T23:46:21.974Z,97001.84
2023-03-31T23:48:49.243Z,97005.53
2023-03-31T23:51:16.424Z,96997.09
2023-03-31T23:53:43.323Z,97004.81
2023-03-31T23:56:13.211Z,97008.00
2023-03-31T23:58:43.003Z,97004.63
